createdAt,value
2023-03-11T00:01:04.556Z,96133.36
2023-03-11T00:03:56.520Z,96124.61
2023-03-11T00:06:48.478Z,96124.86
2023-03-11T00:09:40.722Z,96116.64
2023-03-11T00:12:32.742Z,96116.18
2023-03-11T00:15:24.746Z,96114.81
2023-03-11T00:18:17.287Z,96119.73
2023-03-11T00:21:17.783Z,96126.38
2023-03-11T00:24:10.635Z,96126.54
2023-03-11T00:27:03.021Z,96126.67
2023-03-11T00:29:55.075Z,96126.74
2023-03-11T00:32:49.812Z,96121.73
2023-03-11T00:35:43.140Z,96116.00
2023-03-11T00:38:35.218Z,96109.48
2023-03-11T00:41:27.431Z,96105.48
2023-03-11T00:44:19.550Z,96101.24
2023-03-11T00:47:11.958Z,96100.28
2023-03-11T00:50:03.969Z,96100.10
2023-03-11T00:52:56.388Z,96100.25
2023-03-11T00:55:48.363Z,96100.05
2023-03-11T00:58:40.918Z,96097.63
2023-03-11T01:01:32.908Z,96107.05
2023-03-11T01:04:24.936Z,96111.61
2023-03-11T01:07:16.938Z,96111.65
2023-03-11T01:10:11.012Z,96107.45
2023-03-11T01:13:03.252Z,96103.23
2023-03-11T01:15:55.621Z,96099.60
2023-03-11T01:18:48.191Z,96097.59
2023-03-11T01:21:40.314Z,96092.46
2023-03-11T01:24:32.317Z,96092.53
2023-03-11T01:27:24.322Z,96096.58
2023-03-11T01:30:19.204Z,96094.79
2023-03-11T01:33:15.483Z,96094.12
2023-03-11T01:36:08.895Z,96095.05
2023-03-11T01:39:00.832Z,96095.59
2023-03-11T01:41:53.130Z,96104.96
2023-03-11T01:44:45.231Z,96106.22
2023-03-11T01:47:41.061Z,96106.91
2023-03-11T01:50:37.030Z,96108.75
2023-03-11T01:53:29.304Z,96109.05
2023-03-11T01:56:22.047Z,96102.26
2023-03-11T01:59:16.778Z,96100.52
2023-03-11T02:02:16.094Z,96096.16
2023-03-11T02:05:09.112Z,96097.66
2023-03-11T02:07:59.149Z,96096.02
2023-03-11T02:10:53.455Z,96092.45
2023-03-11T02:13:44.873Z,96094.86
2023-03-11T02:16:37.643Z,96091.36
2023-03-11T02:19:40.581Z,96093.10
2023-03-11T02:22:34.159Z,96092.88
2023-03-11T02:25:32.226Z,96091.00
2023-03-11T02:28:25.104Z,96091.23
2023-03-11T02:31:18.003Z,96091.60
2023-03-11T02:34:17.287Z,96092.13
2023-03-11T02:37:11.827Z,96096.29
2023-03-11T02:43:15.548Z,96095.92
2023-03-11T02:46:11.104Z,96100.04
2023-03-11T02:49:04.162Z,96103.86
2023-03-11T02:51:56.203Z,96105.31
2023-03-11T02:54:48.275Z,96114.02
2023-03-11T02:57:40.548Z,96107.86
2023-03-11T03:00:32.716Z,96110.77
2023-03-11T03:03:24.903Z,96112.29
2023-03-11T03:06:17.816Z,96115.69
2023-03-11T03:09:09.853Z,96115.77
2023-03-11T03:11:46.744Z,96119.60
2023-03-11T03:14:38.839Z,96122.55
2023-03-11T03:17:30.955Z,96127.50
2023-03-11T03:20:23.596Z,96127.23
2023-03-11T03:23:15.896Z,96126.26
2023-03-11T03:26:08.394Z,96126.14
2023-03-11T03:29:00.402Z,96129.35
2023-03-11T03:31:52.443Z,96131.76
2023-03-11T03:34:44.540Z,96134.45
2023-03-11T03:37:38.085Z,96143.95
2023-03-11T03:40:30.660Z,96148.11
2023-03-11T03:43:22.712Z,96141.73
2023-03-11T03:46:14.966Z,96140.17
2023-03-11T03:49:07.058Z,96141.39
2023-03-11T03:51:59.069Z,96138.77
2023-03-11T03:54:51.160Z,96148.05
2023-03-11T03:57:43.174Z,96145.10
2023-03-11T04:00:35.353Z,96140.02
2023-03-11T04:03:10.057Z,96144.00
2023-03-11T04:06:11.349Z,96149.13
2023-03-11T04:09:03.359Z,96147.39
2023-03-11T04:11:55.373Z,96146.60
2023-03-11T04:14:27.264Z,96147.20
2023-03-11T04:17:19.261Z,96150.12
2023-03-11T04:20:13.129Z,96152.05
2023-03-11T04:22:49.917Z,96153.80
2023-03-11T04:25:41.909Z,96154.52
2023-03-11T04:28:34.027Z,96153.55
2023-03-11T04:31:26.290Z,96150.80
2023-03-11T04:34:18.265Z,96143.98
2023-03-11T04:37:10.497Z,96142.16
2023-03-11T04:40:05.578Z,96146.76
2023-03-11T04:42:57.629Z,96153.21
2023-03-11T04:45:52.704Z,96159.64
2023-03-11T04:48:44.785Z,96166.30
2023-03-11T04:51:36.858Z,96166.26
2023-03-11T04:54:28.874Z,96162.15
2023-03-11T04:57:21.634Z,96166.23
2023-03-11T05:00:16.782Z,96166.82
2023-03-11T05:03:08.786Z,96166.37
2023-03-11T05:06:01.146Z,96174.83
2023-03-11T05:08:53.126Z,96171.77
2023-03-11T05:11:45.256Z,96167.64
2023-03-11T05:14:37.296Z,96171.23
2023-03-11T05:17:29.363Z,96173.30
2023-03-11T05:20:21.916Z,96176.98
2023-03-11T05:23:13.957Z,96178.12
2023-03-11T05:26:06.725Z,96185.52
2023-03-11T05:28:58.712Z,96187.11
2023-03-11T05:31:51.027Z,96187.72
2023-03-11T05:34:43.250Z,96190.41
2023-03-11T05:37:35.387Z,96193.45
2023-03-11T05:40:27.614Z,96204.78
2023-03-11T05:43:19.746Z,96204.25
2023-03-11T05:46:11.940Z,96207.95
2023-03-11T05:49:04.376Z,96214.70
2023-03-11T05:51:58.630Z,96218.48
2023-03-11T05:54:53.643Z,96226.58
2023-03-11T05:57:45.632Z,96237.91
2023-03-11T06:00:37.626Z,96249.83
2023-03-11T06:03:29.683Z,96259.42
2023-03-11T06:06:21.778Z,96262.74
2023-03-11T06:09:16.292Z,96269.59
2023-03-11T06:12:09.746Z,96272.98
2023-03-11T06:15:01.740Z,96280.05
2023-03-11T06:17:38.993Z,96283.09
2023-03-11T06:20:31.198Z,96289.35
2023-03-11T06:23:23.561Z,96296.21
2023-03-11T06:26:17.961Z,96310.27
2023-03-11T06:29:09.757Z,96319.87
2023-03-11T06:32:01.697Z,96322.90
2023-03-11T06:34:54.496Z,96324.14
2023-03-11T06:37:46.536Z,96328.93
2023-03-11T06:40:39.267Z,96334.70
2023-03-11T06:43:32.305Z,96342.56
2023-03-11T06:46:25.748Z,96346.06
2023-03-11T06:49:06.609Z,96354.63
2023-03-11T06:51:48.757Z,96359.13
2023-03-11T06:54:40.816Z,96363.31
2023-03-11T06:57:33.540Z,96362.45
2023-03-11T07:00:26.349Z,96369.68
2023-03-11T07:03:18.286Z,96375.46
2023-03-11T07:06:14.663Z,96380.56
2023-03-11T07:09:06.825Z,96386.96
2023-03-11T07:11:58.953Z,96386.89
2023-03-11T07:14:51.008Z,96391.86
2023-03-11T07:17:43.148Z,96396.33
2023-03-11T07:20:35.175Z,96399.50
2023-03-11T07:23:27.265Z,96399.45
2023-03-11T07:26:20.056Z,96402.49
2023-03-11T07:28:55.216Z,96409.17
2023-03-11T07:31:47.693Z,96412.52
2023-03-11T07:34:40.052Z,96415.99
2023-03-11T07:37:32.147Z,96422.03
2023-03-11T07:40:24.270Z,96423.41
2023-03-11T07:43:16.554Z,96427.44
2023-03-11T07:46:10.948Z,96428.70
2023-03-11T07:49:03.717Z,96430.46
2023-03-11T07:51:56.316Z,96433.42
2023-03-11T07:54:48.387Z,96438.64
2023-03-11T07:57:40.593Z,96438.86
2023-03-11T08:00:32.782Z,96447.05
2023-03-11T08:03:25.643Z,96449.98
2023-03-11T08:06:19.525Z,96451.38
2023-03-11T08:09:12.078Z,96453.72
2023-03-11T08:12:04.666Z,96456.34
2023-03-11T08:14:56.881Z,96461.41
2023-03-11T08:17:48.980Z,96465.60
2023-03-11T08:20:41.460Z,96470.48
2023-03-11T08:23:33.578Z,96469.02
2023-03-11T08:26:25.838Z,96473.56
2023-03-11T08:29:03.000Z,96480.05
2023-03-11T08:31:55.005Z,96488.23
2023-03-11T08:34:47.314Z,96489.95
2023-03-11T08:37:39.894Z,96488.86
2023-03-11T08:40:32.172Z,96487.31
2023-03-11T08:43:24.554Z,96499.84
2023-03-11T08:46:22.370Z,96496.76
2023-03-11T08:49:14.388Z,96499.58
2023-03-11T08:52:07.262Z,96503.13
2023-03-11T08:54:59.640Z,96503.77
2023-03-11T08:57:51.698Z,96507.20
2023-03-11T09:00:43.862Z,96508.18
2023-03-11T09:03:36.658Z,96517.17
2023-03-11T09:06:30.338Z,96519.98
2023-03-11T09:09:22.745Z,96527.08
2023-03-11T09:12:14.921Z,96538.19
2023-03-11T09:15:08.170Z,96539.48
2023-03-11T09:18:00.715Z,96538.78
2023-03-11T09:21:00.096Z,96546.53
2023-03-11T09:23:52.362Z,96545.87
2023-03-11T09:26:33.162Z,96554.04
2023-03-11T09:29:25.275Z,96553.38
2023-03-11T09:32:17.826Z,96556.33
2023-03-11T09:35:10.601Z,96559.94
2023-03-11T09:38:02.777Z,96565.07
2023-03-11T09:41:01.187Z,96572.10
2023-03-11T09:44:08.281Z,96572.56
2023-03-11T09:47:25.186Z,96574.77
2023-03-11T09:50:27.624Z,96579.75
2023-03-11T09:53:28.753Z,96583.48
2023-03-11T09:56:24.197Z,96590.54
2023-03-11T09:59:20.671Z,96598.05
2023-03-11T10:02:16.627Z,96598.33
2023-03-11T10:05:16.513Z,96605.16
2023-03-11T10:08:18.653Z,96612.33
2023-03-11T10:11:24.965Z,96616.52
2023-03-11T10:14:29.306Z,96625.29
2023-03-11T10:17:38.266Z,96629.84
2023-03-11T10:20:41.047Z,96634.81
2023-03-11T10:23:46.673Z,96640.35
2023-03-11T10:26:43.089Z,96647.71
2023-03-11T10:29:53.048Z,96646.84
2023-03-11T10:32:50.088Z,96656.00
2023-03-11T10:35:46.345Z,96666.23
2023-03-11T10:38:43.290Z,96668.37
2023-03-11T10:41:50.642Z,96678.55
2023-03-11T10:44:43.877Z,96689.06
2023-03-11T10:47:35.917Z,96692.66
2023-03-11T10:50:28.059Z,96704.29
2023-03-11T10:53:21.089Z,96711.08
2023-03-11T10:56:28.323Z,96717.80
2023-03-11T10:59:27.021Z,96721.71
2023-03-11T11:02:27.052Z,96724.50
2023-03-11T11:05:32.660Z,96729.73
2023-03-11T11:08:24.655Z,96739.44
2023-03-11T11:11:24.710Z,96747.11
2023-03-11T11:14:16.928Z,96762.88
2023-03-11T11:17:19.836Z,96771.84
2023-03-11T11:20:20.224Z,96777.32
2023-03-11T11:23:41.828Z,96790.73
2023-03-11T11:26:33.843Z,96800.59
2023-03-11T11:29:26.126Z,96804.07
2023-03-11T11:32:25.660Z,96810.34
2023-03-11T11:35:19.808Z,96820.16
2023-03-11T11:38:11.889Z,96833.27
2023-03-11T11:41:06.471Z,96845.38
2023-03-11T11:44:01.593Z,96854.70
2023-03-11T11:46:59.131Z,96859.58
2023-03-11T11:49:57.206Z,96869.89
2023-03-11T11:52:54.843Z,96877.05
2023-03-11T11:55:52.595Z,96884.49
2023-03-11T11:58:44.686Z,96888.02
2023-03-11T12:01:46.381Z,96891.14
2023-03-11T12:05:01.233Z,96910.80
2023-03-11T12:08:00.219Z,96916.75
2023-03-11T12:10:58.673Z,96924.67
2023-03-11T12:14:02.021Z,96933.80
2023-03-11T12:16:58.915Z,96940.34
2023-03-11T12:19:56.365Z,96951.23
2023-03-11T12:23:23.891Z,96961.66
2023-03-11T12:26:21.166Z,96969.66
2023-03-11T12:29:22.160Z,96978.19
2023-03-11T12:32:24.655Z,96977.56
2023-03-11T12:35:26.370Z,96985.23
2023-03-11T12:38:25.217Z,96993.40
2023-03-11T12:41:33.652Z,96997.49
2023-03-11T12:44:28.789Z,97008.65
2023-03-11T12:47:22.937Z,97018.36
2023-03-11T12:50:30.370Z,97024.75
2023-03-11T12:53:43.191Z,97031.18
2023-03-11T12:56:44.587Z,97046.43
2023-03-11T13:00:07.568Z,97050.32
2023-03-11T13:03:29.614Z,97060.64
2023-03-11T13:06:43.539Z,97068.84
2023-03-11T13:09:35.974Z,97075.88
2023-03-11T13:12:43.343Z,97085.56
2023-03-11T13:15:43.088Z,97095.13
2023-03-11T13:18:35.565Z,97103.54
2023-03-11T13:21:42.833Z,97112.41
2023-03-11T13:24:53.867Z,97125.30
2023-03-11T13:27:52.328Z,97136.27
2023-03-11T13:30:53.691Z,97145.80
2023-03-11T13:33:52.470Z,97161.89
2023-03-11T13:37:06.740Z,97163.45
2023-03-11T13:40:14.130Z,97170.91
2023-03-11T13:43:11.839Z,97178.09
2023-03-11T13:46:07.648Z,97185.16
2023-03-11T13:49:07.677Z,97186.53
2023-03-11T13:52:01.294Z,97195.66
2023-03-11T13:55:00.460Z,97206.76
2023-03-11T13:57:57.587Z,97208.14
2023-03-11T14:00:55.908Z,97213.39
2023-03-11T14:03:49.082Z,97219.73
2023-03-11T14:06:41.449Z,97234.94
2023-03-11T14:09:33.832Z,97239.90
2023-03-11T14:12:25.925Z,97243.96
2023-03-11T14:15:23.117Z,97252.05
2023-03-11T14:18:36.748Z,97260.52
2023-03-11T14:21:30.228Z,97268.73
2023-03-11T14:24:25.176Z,97274.08
2023-03-11T14:27:18.775Z,97271.55
2023-03-11T14:30:22.686Z,97277.91
2023-03-11T14:33:23.445Z,97282.80
2023-03-11T14:36:17.184Z,97288.57
2023-03-11T14:39:25.348Z,97298.54
2023-03-11T14:42:23.796Z,97305.79
2023-03-11T14:45:19.273Z,97314.26
2023-03-11T14:48:16.428Z,97321.34
2023-03-11T14:51:15.545Z,97328.77
2023-03-11T14:54:15.421Z,97337.39
2023-03-11T14:57:17.483Z,97342.01
2023-03-11T15:00:17.616Z,97351.55
2023-03-11T15:03:32.194Z,97354.10
2023-03-11T15:06:27.415Z,97352.20
2023-03-11T15:09:22.725Z,97359.52
2023-03-11T15:12:33.353Z,97360.20
2023-03-11T15:15:27.936Z,97365.36
2023-03-11T15:18:25.474Z,97373.30
2023-03-11T15:21:19.329Z,97381.11
2023-03-11T15:24:25.206Z,97385.42
2023-03-11T15:27:29.067Z,97389.54
2023-03-11T15:30:24.678Z,97393.93
2023-03-11T15:33:34.936Z,97400.34
2023-03-11T15:36:35.737Z,97406.76
2023-03-11T15:39:43.924Z,97412.48
2023-03-11T15:42:35.939Z,97418.15
2023-03-11T15:45:27.938Z,97418.85
2023-03-11T15:48:20.036Z,97433.25
2023-03-11T15:51:21.946Z,97441.88
2023-03-11T15:54:14.061Z,97451.98
2023-03-11T15:57:11.753Z,97454.02
2023-03-11T16:00:06.832Z,97464.27
2023-03-11T16:02:57.307Z,97468.00
2023-03-11T16:05:49.854Z,97471.30
2023-03-11T16:08:41.912Z,97475.37
2023-03-11T16:11:34.023Z,97485.09
2023-03-11T16:14:26.182Z,97487.77
2023-03-11T16:17:19.061Z,97497.54
2023-03-11T16:20:12.848Z,97504.43
2023-03-11T16:23:05.814Z,97506.39
2023-03-11T16:26:00.692Z,97518.11
2023-03-11T16:28:52.763Z,97524.55
2023-03-11T16:31:44.832Z,97531.29
2023-03-11T16:34:37.636Z,97539.30
2023-03-11T16:37:29.679Z,97541.15
2023-03-11T16:40:25.275Z,97546.55
2023-03-11T16:43:09.715Z,97550.14
2023-03-11T16:46:01.745Z,97555.65
2023-03-11T16:48:53.660Z,97564.48
2023-03-11T16:51:45.685Z,97575.83
2023-03-11T16:54:20.367Z,97582.41
2023-03-11T16:57:12.308Z,97589.00
2023-03-11T17:00:06.279Z,97601.15
2023-03-11T17:02:48.746Z,97605.08
2023-03-11T17:05:40.864Z,97615.22
2023-03-11T17:08:32.853Z,97616.69
2023-03-11T17:11:28.457Z,97627.34
2023-03-11T17:14:20.519Z,97627.87
2023-03-11T17:17:12.697Z,97637.40
2023-03-11T17:20:06.267Z,97646.45
2023-03-11T17:22:58.516Z,97652.69
2023-03-11T17:25:50.447Z,97662.13
2023-03-11T17:28:43.342Z,97667.82
2023-03-11T17:31:35.489Z,97672.73
2023-03-11T17:34:27.529Z,97677.36
2023-03-11T17:37:19.697Z,97679.52
2023-03-11T17:40:13.492Z,97687.15
2023-03-11T17:42:56.129Z,97695.95
2023-03-11T17:45:48.131Z,97702.98
2023-03-11T17:48:40.977Z,97707.79
2023-03-11T17:51:33.119Z,97709.63
2023-03-11T17:54:25.476Z,97717.48
2023-03-11T17:57:17.516Z,97721.79
2023-03-11T18:00:15.099Z,97731.83
2023-03-11T18:02:51.275Z,97735.64
2023-03-11T18:05:43.482Z,97741.84
2023-03-11T18:08:36.693Z,97749.27
2023-03-11T18:11:15.468Z,97758.88
2023-03-11T18:14:08.936Z,97764.95
2023-03-11T18:17:00.994Z,97770.90
2023-03-11T18:19:53.127Z,97775.52
2023-03-11T18:22:30.675Z,97780.77
2023-03-11T18:25:22.831Z,97787.83
2023-03-11T18:28:14.924Z,97791.60
2023-03-11T18:31:11.729Z,97794.64
2023-03-11T18:34:07.370Z,97800.00
2023-03-11T18:36:59.492Z,97803.67
2023-03-11T18:39:51.946Z,97805.80
2023-03-11T18:42:44.046Z,97811.84
2023-03-11T18:45:36.111Z,97819.09
2023-03-11T18:48:29.053Z,97825.39
2023-03-11T18:51:08.414Z,97827.71
2023-03-11T18:54:00.966Z,97831.27
2023-03-11T18:56:53.118Z,97837.20
2023-03-11T18:59:45.172Z,97837.24
2023-03-11T19:02:37.219Z,97843.23
2023-03-11T19:05:29.423Z,97848.73
2023-03-11T19:08:21.556Z,97850.61
2023-03-11T19:11:15.725Z,97856.19
2023-03-11T19:14:07.880Z,97855.76
2023-03-11T19:16:59.896Z,97863.37
2023-03-11T19:19:51.905Z,97860.63
2023-03-11T19:22:44.391Z,97867.05
2023-03-11T19:25:37.424Z,97871.38
2023-03-11T19:28:29.876Z,97879.98
2023-03-11T19:31:05.844Z,97887.66
2023-03-11T19:33:58.044Z,97893.33
2023-03-11T19:36:50.235Z,97896.45
2023-03-11T19:39:42.676Z,97899.42
2023-03-11T19:42:35.330Z,97902.13
2023-03-11T19:45:27.501Z,97904.58
2023-03-11T19:48:20.222Z,97906.06
2023-03-11T19:51:12.873Z,97908.11
2023-03-11T19:54:04.950Z,97909.83
2023-03-11T19:56:56.952Z,97915.36
2023-03-11T19:59:49.200Z,97914.89
2023-03-11T20:02:31.557Z,97922.62
2023-03-11T20:05:23.706Z,97922.67
2023-03-11T20:08:19.347Z,97926.61
2023-03-11T20:11:12.788Z,97933.00
2023-03-11T20:14:06.422Z,97932.00
2023-03-11T20:16:58.724Z,97930.85
2023-03-11T20:19:50.876Z,97930.99
2023-03-11T20:22:42.951Z,97927.17
2023-03-11T20:25:35.246Z,97929.38
2023-03-11T20:28:16.395Z,97932.00
2023-03-11T20:31:13.843Z,97933.06
2023-03-11T20:34:06.233Z,97934.91
2023-03-11T20:36:58.978Z,97943.98
2023-03-11T20:39:52.496Z,97944.38
2023-03-11T20:42:47.191Z,97946.48
2023-03-11T20:45:39.325Z,97951.64
2023-03-11T20:48:15.563Z,97949.14
2023-03-11T20:51:12.096Z,97949.46
2023-03-11T20:54:07.819Z,97955.33
2023-03-11T20:57:00.909Z,97956.91
2023-03-11T20:59:53.335Z,97963.05
2023-03-11T21:02:36.474Z,97966.19
2023-03-11T21:05:27.048Z,97968.05
2023-03-11T21:08:19.131Z,97971.19
2023-03-11T21:11:11.421Z,97972.20
2023-03-11T21:14:03.835Z,97980.85
2023-03-11T21:16:57.746Z,97984.92
2023-03-11T21:19:51.053Z,97981.68
2023-03-11T21:22:46.310Z,97986.48
2023-03-11T21:25:23.638Z,97989.06
2023-03-11T21:28:18.110Z,97993.86
2023-03-11T21:31:14.044Z,97996.16
2023-03-11T21:34:08.667Z,97986.60
2023-03-11T21:37:02.262Z,97998.38
2023-03-11T21:39:38.182Z,97995.81
2023-03-11T21:42:32.799Z,97999.66
2023-03-11T21:45:26.535Z,97995.73
2023-03-11T21:48:21.519Z,97993.98
2023-03-11T21:51:15.295Z,97998.73
2023-03-11T21:54:07.754Z,98001.33
2023-03-11T21:56:59.769Z,98006.45
2023-03-11T21:59:36.565Z,98012.04
2023-03-11T22:02:29.068Z,98014.61
2023-03-11T22:05:21.413Z,98017.61
2023-03-11T22:08:14.583Z,98022.34
2023-03-11T22:11:10.397Z,98023.00
2023-03-11T22:14:02.569Z,98024.76
2023-03-11T22:16:54.926Z,98028.55
2023-03-11T22:19:47.511Z,98028.15
2023-03-11T22:22:40.476Z,98028.89
2023-03-11T22:25:32.709Z,98032.48
2023-03-11T22:28:25.181Z,98036.97
2023-03-11T22:31:19.000Z,98045.77
2023-03-11T22:34:11.055Z,98044.61
2023-03-11T22:37:03.037Z,98046.37
2023-03-11T22:39:55.222Z,98047.09
2023-03-11T22:42:47.174Z,98057.98
2023-03-11T22:45:39.189Z,98056.46
2023-03-11T22:48:31.275Z,98057.52
2023-03-11T22:51:23.353Z,98054.81
2023-03-11T22:54:15.586Z,98053.40
2023-03-11T22:57:08.115Z,98055.68
2023-03-11T23:00:00.194Z,98052.59
2023-03-11T23:02:55.746Z,98057.08
2023-03-11T23:05:47.763Z,98056.40
2023-03-11T23:08:39.988Z,98060.42
2023-03-11T23:11:32.003Z,98061.59
2023-03-11T23:14:37.786Z,98066.09
2023-03-11T23:17:36.248Z,98068.89
2023-03-11T23:20:28.475Z,98062.18
2023-03-11T23:23:20.499Z,98056.77
2023-03-11T23:26:13.504Z,98060.07
2023-03-11T23:29:06.985Z,98063.27
2023-03-11T23:31:59.007Z,98065.73
2023-03-11T23:34:51.005Z,98067.48
2023-03-11T23:37:43.337Z,98067.48
2023-03-11T23:40:35.322Z,98072.32
2023-03-11T23:43:28.697Z,98077.65
2023-03-11T23:46:20.633Z,98080.99
2023-03-11T23:49:12.669Z,98081.23
2023-03-11T23:52:05.057Z,98085.17
2023-03-11T23:54:57.623Z,98087.52
2023-03-11T23:57:49.649Z,98088.48
